createdAt,value
2016-10-06T00:00:17.737Z,7.58
2016-10-06T00:01:17.715Z,7.58
2016-10-06T00:02:17.682Z,7.6
2016-10-06T00:03:17.651Z,7.69
2016-10-06T00:04:17.626Z,7.66
2016-10-06T00:05:17.585Z,7.58
2016-10-06T00:06:17.555Z,7.63
2016-10-06T00:07:17.538Z,7.67
2016-10-06T00:08:17.502Z,7.61
2016-10-06T00:09:17.476Z,7.48
2016-10-06T00:10:17.443Z,7.45
2016-10-06T00:11:17.412Z,7.48
2016-10-06T00:12:17.379Z,7.53
2016-10-06T00:13:17.351Z,7.56
2016-10-06T00:14:17.323Z,7.57
2016-10-06T00:15:17.301Z,7.53
2016-10-06T00:16:17.265Z,7.57
2016-10-06T00:17:17.234Z,7.47
2016-10-06T00:18:17.209Z,7.47
2016-10-06T00:19:17.177Z,7.43
2016-10-06T00:20:17.146Z,7.48
2016-10-06T00:21:17.121Z,7.48
2016-10-06T00:22:17.089Z,7.45
2016-10-06T00:23:17.056Z,7.47
2016-10-06T00:24:17.019Z,7.43
2016-10-06T00:25:16.992Z,7.35
2016-10-06T00:26:16.966Z,7.43
2016-10-06T00:27:16.943Z,7.39
2016-10-06T00:28:16.899Z,7.39
2016-10-06T00:29:16.873Z,7.39
2016-10-06T00:30:16.862Z,7.35
2016-10-06T00:31:16.820Z,7.33
2016-10-06T00:32:16.781Z,7.39
2016-10-06T00:33:16.759Z,7.31
2016-10-06T00:34:16.729Z,7.33
2016-10-06T00:35:16.698Z,7.25
2016-10-06T00:36:16.667Z,7.24
2016-10-06T00:37:16.641Z,7.31
2016-10-06T00:38:16.612Z,7.29
2016-10-06T00:39:16.580Z,7.28
2016-10-06T00:40:16.548Z,7.33
2016-10-06T00:41:16.520Z,7.24
2016-10-06T00:42:16.485Z,7.25
2016-10-06T00:43:16.451Z,7.21
2016-10-06T00:44:16.429Z,7.25
2016-10-06T00:45:16.404Z,7.18
2016-10-06T00:46:16.364Z,7.23
2016-10-06T00:47:16.336Z,7.2
2016-10-06T00:48:16.307Z,7.21
2016-10-06T00:49:16.270Z,7.14
2016-10-06T00:50:16.244Z,7.2
2016-10-06T00:51:16.219Z,7.2
2016-10-06T00:52:16.184Z,7.28
2016-10-06T00:53:16.152Z,7.2
2016-10-06T00:54:16.128Z,7.25
2016-10-06T00:55:16.096Z,7.33
2016-10-06T00:56:16.075Z,7.25
2016-10-06T00:57:16.029Z,7.25
2016-10-06T00:58:16.010Z,7.29
2016-10-06T00:59:15.984Z,7.28
2016-10-06T01:00:15.955Z,7.31
2016-10-06T01:01:15.918Z,7.29
2016-10-06T01:02:15.889Z,7.35
2016-10-06T01:03:15.863Z,7.29
2016-10-06T01:04:15.848Z,7.25
2016-10-06T01:05:15.800Z,7.35
2016-10-06T01:06:15.765Z,7.25
2016-10-06T01:07:15.739Z,7.33
2016-10-06T01:08:15.705Z,7.31
2016-10-06T01:09:15.684Z,7.32
2016-10-06T01:10:15.652Z,7.28
2016-10-06T01:11:15.624Z,7.33
2016-10-06T01:12:15.589Z,7.33
2016-10-06T01:13:15.564Z,7.31
2016-10-06T01:14:15.528Z,7.32
2016-10-06T01:15:15.501Z,7.36
2016-10-06T01:16:15.472Z,7.33
2016-10-06T01:17:15.438Z,7.33
2016-10-06T01:18:15.418Z,7.39
2016-10-06T01:19:15.388Z,7.32
2016-10-06T01:20:15.360Z,7.35
2016-10-06T01:21:15.326Z,7.33
2016-10-06T01:22:15.294Z,7.36
2016-10-06T01:23:15.267Z,7.33
2016-10-06T01:24:15.227Z,7.36
2016-10-06T01:25:15.206Z,7.33
2016-10-06T01:26:15.173Z,7.36
2016-10-06T01:27:15.149Z,7.33
2016-10-06T01:28:15.110Z,7.33
2016-10-06T01:29:15.086Z,7.32
2016-10-06T01:30:15.056Z,7.35
2016-10-06T01:31:15.025Z,7.39
2016-10-06T01:32:14.997Z,7.32
2016-10-06T01:33:14.967Z,7.35
2016-10-06T01:34:14.935Z,7.32
2016-10-06T01:35:14.911Z,7.29
2016-10-06T01:36:14.873Z,7.28
2016-10-06T01:37:14.863Z,7.28
2016-10-06T01:38:14.814Z,7.33
2016-10-06T01:39:14.791Z,7.31
2016-10-06T01:40:14.763Z,7.28
2016-10-06T01:41:14.734Z,7.17
2016-10-06T01:42:14.700Z,7.15
2016-10-06T01:43:14.673Z,7.18
2016-10-06T01:44:14.639Z,7.18
2016-10-06T01:45:14.607Z,7.18
2016-10-06T01:46:14.586Z,7.15
2016-10-06T01:47:14.553Z,7.15
2016-10-06T01:48:14.521Z,7.15
2016-10-06T01:49:14.488Z,7.11
2016-10-06T01:50:14.462Z,7.13
2016-10-06T01:51:14.428Z,7.13
2016-10-06T01:52:14.397Z,7.13
2016-10-06T01:53:14.369Z,7.13
2016-10-06T01:54:14.342Z,7.1
2016-10-06T01:55:14.318Z,7.14
2016-10-06T01:56:14.284Z,7.11
2016-10-06T01:57:14.253Z,7.06
2016-10-06T01:58:14.220Z,7.07
2016-10-06T01:59:14.188Z,6.99
2016-10-06T02:00:14.294Z,7.1
2016-10-06T02:01:14.381Z,7.07
2016-10-06T02:02:14.345Z,7.1
2016-10-06T02:03:14.070Z,6.89
2016-10-06T02:04:14.057Z,6.99
2016-10-06T02:05:14.016Z,7.02
2016-10-06T02:06:13.995Z,6.92
2016-10-06T02:07:13.997Z,6.96
2016-10-06T02:08:13.922Z,6.93
2016-10-06T02:09:13.895Z,7
2016-10-06T02:10:13.861Z,7.03
2016-10-06T02:11:13.838Z,7.07
2016-10-06T02:12:13.795Z,6.95
2016-10-06T02:13:13.774Z,7.06
2016-10-06T02:14:13.743Z,6.99
2016-10-06T02:15:13.710Z,7.02
2016-10-06T02:16:13.681Z,7.05
2016-10-06T02:17:13.656Z,7.06
2016-10-06T02:18:13.623Z,7.06
2016-10-06T02:19:13.593Z,7.06
2016-10-06T02:20:13.563Z,7.1
2016-10-06T02:21:13.529Z,7.15
2016-10-06T02:22:13.503Z,7.13
2016-10-06T02:23:13.466Z,7.14
2016-10-06T02:24:13.438Z,7.13
2016-10-06T02:25:13.405Z,7.05
2016-10-06T02:26:13.379Z,7.2
2016-10-06T02:27:13.351Z,7.11
2016-10-06T02:28:13.322Z,7.11
2016-10-06T02:29:13.294Z,7.25
2016-10-06T02:30:13.268Z,7.15
2016-10-06T02:31:13.239Z,7.18
2016-10-06T02:32:13.199Z,7.23
2016-10-06T02:33:13.169Z,7.28
2016-10-06T02:34:13.141Z,7.29
2016-10-06T02:35:13.109Z,7.32
2016-10-06T02:36:13.082Z,7.29
2016-10-06T02:37:13.050Z,7.25
2016-10-06T02:38:13.021Z,7.28
2016-10-06T02:39:12.999Z,7.33
2016-10-06T02:40:12.968Z,7.23
2016-10-06T02:41:12.937Z,7.29
2016-10-06T02:42:12.900Z,7.28
2016-10-06T02:43:13.178Z,7.29
2016-10-06T02:44:12.848Z,7.28
2016-10-06T02:45:12.813Z,7.28
2016-10-06T02:46:12.786Z,7.23
2016-10-06T02:47:12.759Z,7.21
2016-10-06T02:48:12.730Z,7.21
2016-10-06T02:49:12.695Z,7.2
2016-10-06T02:50:12.672Z,7.29
2016-10-06T02:51:12.639Z,7.25
2016-10-06T02:52:12.608Z,7.24
2016-10-06T02:53:12.575Z,7.24
2016-10-06T02:54:12.542Z,7.32
2016-10-06T02:55:12.520Z,7.28
2016-10-06T02:56:12.484Z,7.29
2016-10-06T02:57:12.458Z,7.29
2016-10-06T02:58:12.432Z,7.36
2016-10-06T02:59:12.395Z,7.42
2016-10-06T03:00:12.371Z,7.39
2016-10-06T03:01:12.329Z,7.28
2016-10-06T03:02:12.306Z,7.4
2016-10-06T03:03:12.279Z,7.33
2016-10-06T03:04:12.248Z,7.35
2016-10-06T03:05:12.218Z,7.35
2016-10-06T03:06:12.187Z,7.36
2016-10-06T03:07:12.166Z,7.33
2016-10-06T03:08:12.133Z,7.29
2016-10-06T03:09:12.096Z,7.25
2016-10-06T03:10:12.075Z,7.23
2016-10-06T03:11:12.042Z,7.24
2016-10-06T03:12:12.010Z,7.24
2016-10-06T03:13:11.979Z,7.2
2016-10-06T03:14:11.952Z,7.18
2016-10-06T03:15:11.925Z,7.18
2016-10-06T03:16:11.891Z,7.14
2016-10-06T03:17:11.860Z,7.23
2016-10-06T03:18:11.830Z,7.11
2016-10-06T03:19:11.799Z,7.1
2016-10-06T03:20:11.762Z,7.11
2016-10-06T03:21:11.743Z,7.06
2016-10-06T03:22:11.720Z,7.13
2016-10-06T03:23:11.675Z,7.07
2016-10-06T03:24:11.650Z,7.07
2016-10-06T03:25:11.617Z,7.05
2016-10-06T03:26:11.603Z,7
2016-10-06T03:27:11.559Z,7
2016-10-06T03:28:11.530Z,7.02
2016-10-06T03:29:11.507Z,6.96
2016-10-06T03:30:11.486Z,7.06
2016-10-06T03:31:11.437Z,6.88
2016-10-06T03:32:11.414Z,6.96
2016-10-06T03:33:11.373Z,7.11
2016-10-06T03:34:11.347Z,6.95
2016-10-06T03:35:11.313Z,7.02
2016-10-06T03:36:11.295Z,6.96
2016-10-06T03:37:11.256Z,6.93
2016-10-06T03:38:11.231Z,7.05
2016-10-06T03:39:11.199Z,6.92
2016-10-06T03:40:11.165Z,6.96
2016-10-06T03:41:11.137Z,6.92
2016-10-06T03:42:11.100Z,6.93
2016-10-06T03:43:11.082Z,7
2016-10-06T03:44:11.049Z,6.95
2016-10-06T03:45:11.010Z,6.95
2016-10-06T03:46:10.989Z,7.06
2016-10-06T03:47:10.959Z,6.89
2016-10-06T03:48:10.925Z,7.02
2016-10-06T03:49:10.892Z,7.05
2016-10-06T03:50:10.861Z,7.05
2016-10-06T03:51:10.831Z,7.11
2016-10-06T03:52:10.800Z,7.18
2016-10-06T03:53:10.775Z,7.1
2016-10-06T03:54:10.743Z,7.07
2016-10-06T03:55:10.717Z,7.2
2016-10-06T03:56:10.683Z,7.11
2016-10-06T03:57:10.650Z,7.17
2016-10-06T03:58:10.623Z,7.2
2016-10-06T03:59:10.592Z,7.31
2016-10-06T04:00:10.568Z,7.29
2016-10-06T04:01:10.532Z,7.29
2016-10-06T04:02:10.510Z,7.38
2016-10-06T04:03:10.476Z,7.33
2016-10-06T04:04:10.449Z,7.32
2016-10-06T04:05:10.413Z,7.4
2016-10-06T04:06:10.385Z,7.43
2016-10-06T04:07:10.355Z,7.4
2016-10-06T04:08:10.327Z,7.33
2016-10-06T04:09:10.304Z,7.45
2016-10-06T04:10:10.270Z,7.42
2016-10-06T04:11:10.241Z,7.48
2016-10-06T04:12:10.206Z,7.48
2016-10-06T04:13:10.182Z,7.53
2016-10-06T04:14:10.148Z,7.51
2016-10-06T04:15:10.119Z,7.57
2016-10-06T04:16:10.092Z,7.54
2016-10-06T04:17:10.052Z,7.5
2016-10-06T04:18:10.026Z,7.47
2016-10-06T04:19:09.999Z,7.66
2016-10-06T04:20:09.966Z,7.57
2016-10-06T04:21:09.953Z,7.61
2016-10-06T04:22:09.913Z,7.61
2016-10-06T04:23:09.882Z,7.66
2016-10-06T04:24:09.853Z,7.67
2016-10-06T04:25:09.817Z,7.6
2016-10-06T04:26:09.793Z,7.61
2016-10-06T04:27:09.762Z,7.67
2016-10-06T04:28:09.733Z,7.7
2016-10-06T04:29:09.707Z,7.7
2016-10-06T04:30:09.678Z,7.73
2016-10-06T04:31:09.654Z,7.61
2016-10-06T04:32:09.630Z,7.72
2016-10-06T04:33:09.592Z,7.75
2016-10-06T04:34:09.557Z,7.72
2016-10-06T04:35:09.523Z,7.66
2016-10-06T04:36:09.490Z,7.73
2016-10-06T04:37:09.472Z,7.72
2016-10-06T04:38:09.437Z,7.83
2016-10-06T04:39:09.409Z,7.8
2016-10-06T04:40:09.384Z,7.83
2016-10-06T04:41:09.350Z,7.76
2016-10-06T04:42:09.317Z,7.77
2016-10-06T04:43:09.291Z,7.82
2016-10-06T04:44:09.269Z,7.91
2016-10-06T04:45:09.236Z,7.8
2016-10-06T04:46:09.201Z,7.9
2016-10-06T04:47:09.183Z,7.87
2016-10-06T04:48:09.398Z,7.93
2016-10-06T04:49:09.117Z,7.94
2016-10-06T04:50:09.083Z,7.95
2016-10-06T04:51:09.055Z,7.93
2016-10-06T04:52:09.035Z,7.95
2016-10-06T04:53:09.004Z,7.95
2016-10-06T04:54:08.967Z,7.97
2016-10-06T04:55:08.938Z,7.94
2016-10-06T04:56:08.916Z,7.98
2016-10-06T04:57:08.878Z,7.94
2016-10-06T04:58:08.854Z,7.93
2016-10-06T04:59:08.823Z,8
2016-10-06T05:00:08.800Z,8.01
2016-10-06T05:01:08.766Z,8
2016-10-06T05:02:08.739Z,8
2016-10-06T05:03:08.714Z,7.98
2016-10-06T05:04:08.689Z,7.93
2016-10-06T05:05:08.651Z,8.06
2016-10-06T05:06:08.617Z,8.03
2016-10-06T05:07:08.585Z,8.05
2016-10-06T05:08:08.564Z,8.08
2016-10-06T05:09:08.530Z,7.93
2016-10-06T05:10:08.506Z,7.95
2016-10-06T05:11:08.473Z,8
2016-10-06T05:12:08.447Z,7.98
2016-10-06T05:13:08.413Z,7.98
2016-10-06T05:14:08.406Z,8
2016-10-06T05:15:08.357Z,8
2016-10-06T05:16:09.731Z,7.97
2016-10-06T05:17:08.616Z,7.98
2016-10-06T05:18:08.748Z,7.97
2016-10-06T05:19:08.236Z,7.94
2016-10-06T05:20:08.204Z,8.08
2016-10-06T05:21:08.183Z,7.94
2016-10-06T05:22:08.156Z,8.05
2016-10-06T05:23:08.125Z,8.01
2016-10-06T05:24:08.092Z,8.08
2016-10-06T05:25:08.070Z,8.05
2016-10-06T05:26:08.035Z,8.08
2016-10-06T05:27:08.010Z,8.09
2016-10-06T05:28:07.974Z,8.03
2016-10-06T05:29:07.947Z,8.05
2016-10-06T05:30:07.913Z,8.08
2016-10-06T05:31:07.885Z,8.1
2016-10-06T05:32:07.859Z,8.03
2016-10-06T05:33:07.829Z,8.03
2016-10-06T05:34:07.807Z,7.95
2016-10-06T05:35:07.774Z,8.03
2016-10-06T05:36:07.747Z,8.05
2016-10-06T05:37:07.713Z,7.95
2016-10-06T05:38:07.688Z,8.05
2016-10-06T05:39:07.653Z,8.01
2016-10-06T05:40:07.623Z,8.08
2016-10-06T05:41:07.603Z,7.98
2016-10-06T05:42:07.573Z,8.05
2016-10-06T05:43:07.535Z,8.08
2016-10-06T05:44:07.506Z,8.15
2016-10-06T05:45:07.487Z,8.09
2016-10-06T05:46:07.453Z,8.1
2016-10-06T05:47:07.419Z,8.13
2016-10-06T05:48:07.395Z,8.15
2016-10-06T05:49:07.368Z,8.1
2016-10-06T05:50:07.341Z,8.12
2016-10-06T05:51:07.299Z,8.1
2016-10-06T05:52:07.274Z,8.12
2016-10-06T05:53:07.250Z,8.13
2016-10-06T05:54:07.237Z,8.06
2016-10-06T05:55:07.326Z,8.12
2016-10-06T05:56:07.160Z,8.13
2016-10-06T05:57:07.126Z,8.19
2016-10-06T05:58:07.103Z,8.16
2016-10-06T05:59:07.071Z,8.2
2016-10-06T06:00:07.044Z,8.15
2016-10-06T06:01:07.018Z,8.16
2016-10-06T06:02:06.982Z,8.2
2016-10-06T06:03:06.966Z,8.3
2016-10-06T06:04:06.927Z,8.3
2016-10-06T06:05:06.908Z,8.28
2016-10-06T06:06:06.869Z,8.31
2016-10-06T06:07:06.838Z,8.33
2016-10-06T06:08:06.812Z,8.3
2016-10-06T06:09:06.788Z,8.31
2016-10-06T06:10:06.758Z,8.34
2016-10-06T06:11:06.731Z,8.34
2016-10-06T06:12:06.698Z,8.34
2016-10-06T06:13:06.674Z,8.42
2016-10-06T06:14:06.648Z,8.3
2016-10-06T06:15:06.613Z,8.48
2016-10-06T06:16:06.581Z,8.38
2016-10-06T06:17:06.556Z,8.44
2016-10-06T06:18:06.527Z,8.48
2016-10-06T06:19:06.500Z,8.48
2016-10-06T06:20:06.475Z,8.53
2016-10-06T06:21:06.440Z,8.61
2016-10-06T06:22:06.412Z,8.53
2016-10-06T06:23:06.388Z,8.61
2016-10-06T06:24:06.349Z,8.64
2016-10-06T06:25:06.320Z,8.66
2016-10-06T06:26:06.303Z,8.67
2016-10-06T06:27:06.279Z,8.63
2016-10-06T06:28:06.245Z,8.69
2016-10-06T06:29:06.213Z,8.73
2016-10-06T06:30:06.184Z,8.71
2016-10-06T06:31:06.449Z,8.73
2016-10-06T06:32:06.130Z,8.7
2016-10-06T06:33:06.100Z,8.81
2016-10-06T06:34:06.211Z,8.81
2016-10-06T06:35:06.038Z,8.74
2016-10-06T06:36:06.020Z,8.87
2016-10-06T06:37:05.992Z,8.92
2016-10-06T06:38:05.953Z,8.95
2016-10-06T06:39:05.929Z,8.92
2016-10-06T06:40:05.904Z,8.92
2016-10-06T06:41:05.870Z,9
2016-10-06T06:42:05.848Z,9.06
2016-10-06T06:43:06.109Z,9.02
2016-10-06T06:44:05.791Z,9.03
2016-10-06T06:45:05.779Z,9.03
2016-10-06T06:46:05.733Z,9
2016-10-06T06:47:05.703Z,9.02
2016-10-06T06:48:05.676Z,9
2016-10-06T06:49:05.645Z,9.06
2016-10-06T06:50:05.618Z,8.97
2016-10-06T06:51:05.590Z,9.08
2016-10-06T06:52:05.572Z,9.06
2016-10-06T06:53:05.539Z,9.08
2016-10-06T06:54:05.515Z,9.06
2016-10-06T06:55:05.783Z,9.03
2016-10-06T06:56:05.451Z,9.1
2016-10-06T06:57:05.422Z,9.02
2016-10-06T06:58:05.402Z,9.1
2016-10-06T06:59:05.367Z,9.14
2016-10-06T07:00:05.347Z,9.14
2016-10-06T07:01:05.322Z,9.23
2016-10-06T07:02:05.285Z,9.23
2016-10-06T07:03:05.262Z,9.34
2016-10-06T07:04:05.239Z,9.29
2016-10-06T07:05:05.208Z,9.32
2016-10-06T07:06:05.178Z,9.39
2016-10-06T07:07:05.153Z,9.37
2016-10-06T07:08:05.149Z,9.34
2016-10-06T07:09:05.093Z,9.37
2016-10-06T07:10:05.065Z,9.43
2016-10-06T07:11:05.039Z,9.39
2016-10-06T07:12:05.018Z,9.54
2016-10-06T07:13:04.987Z,9.44
2016-10-06T07:14:04.959Z,9.54
2016-10-06T07:15:04.932Z,9.5
2016-10-06T07:16:04.907Z,9.55
2016-10-06T07:17:04.874Z,9.56
2016-10-06T07:18:04.848Z,9.56
2016-10-06T07:19:04.822Z,9.72
2016-10-06T07:20:04.797Z,9.73
2016-10-06T07:21:04.768Z,9.8
2016-10-06T07:22:04.736Z,9.74
2016-10-06T07:23:04.715Z,9.77
2016-10-06T07:24:04.687Z,9.79
2016-10-06T07:25:04.660Z,9.83
2016-10-06T07:26:04.635Z,9.86
2016-10-06T07:27:04.608Z,9.87
2016-10-06T07:28:04.576Z,9.86
2016-10-06T07:29:04.546Z,10.01
2016-10-06T07:30:04.529Z,9.92
2016-10-06T07:31:04.789Z,9.99
2016-10-06T07:32:04.467Z,10.05
2016-10-06T07:33:04.444Z,10.02
2016-10-06T07:34:04.418Z,10.1
2016-10-06T07:35:04.393Z,10.2
2016-10-06T07:36:04.365Z,10.2
2016-10-06T07:37:04.337Z,10.17
2016-10-06T07:38:04.307Z,10.22
2016-10-06T07:39:04.286Z,10.19
2016-10-06T07:40:04.257Z,10.23
2016-10-06T07:41:04.226Z,10.33
2016-10-06T07:42:04.202Z,10.34
2016-10-06T07:43:04.174Z,10.33
2016-10-06T07:44:04.156Z,10.34
2016-10-06T07:45:04.130Z,10.34
2016-10-06T07:46:04.095Z,10.31
2016-10-06T07:47:04.069Z,10.33
2016-10-06T07:48:04.050Z,10.3
2016-10-06T07:49:04.011Z,10.34
2016-10-06T07:50:03.987Z,10.25
2016-10-06T07:51:04.259Z,10.22
2016-10-06T07:52:04.241Z,10.31
2016-10-06T07:53:03.917Z,10.3
2016-10-06T07:54:03.889Z,10.35
2016-10-06T07:55:04.277Z,10.28
2016-10-06T07:56:03.832Z,10.34
2016-10-06T07:57:03.819Z,10.38
2016-10-06T07:58:04.101Z,10.33
2016-10-06T07:59:03.757Z,10.41
2016-10-06T08:00:03.730Z,10.41
2016-10-06T08:01:04.060Z,10.41
2016-10-06T08:02:03.673Z,10.44
2016-10-06T08:03:03.662Z,10.42
2016-10-06T08:04:03.618Z,10.46
2016-10-06T08:05:03.638Z,10.46
2016-10-06T08:06:03.568Z,10.38
2016-10-06T08:07:03.544Z,10.4
2016-10-06T08:08:03.513Z,10.4
2016-10-06T08:09:03.494Z,10.31
2016-10-06T08:10:03.481Z,10.4
2016-10-06T08:11:03.429Z,10.28
2016-10-06T08:12:03.404Z,10.31
2016-10-06T08:13:03.384Z,10.33
2016-10-06T08:14:03.357Z,10.31
2016-10-06T08:15:03.331Z,10.33
2016-10-06T08:16:03.300Z,10.35
2016-10-06T08:17:03.281Z,10.41
2016-10-06T08:18:03.247Z,10.35
2016-10-06T08:19:03.229Z,10.31
2016-10-06T08:20:03.195Z,10.42
2016-10-06T08:21:03.172Z,10.42
2016-10-06T08:22:03.161Z,10.4
2016-10-06T08:23:03.421Z,10.42
2016-10-06T08:24:03.089Z,10.51
2016-10-06T08:25:03.068Z,10.46
2016-10-06T08:26:03.046Z,10.53
2016-10-06T08:27:03.009Z,10.57
2016-10-06T08:28:02.987Z,10.54
2016-10-06T08:29:02.960Z,10.57
2016-10-06T08:30:02.954Z,10.59
2016-10-06T08:31:02.910Z,10.57
2016-10-06T08:32:02.925Z,10.57
2016-10-06T08:33:02.862Z,10.53
2016-10-06T08:34:02.833Z,10.56
2016-10-06T08:35:02.803Z,10.57
2016-10-06T08:36:02.781Z,10.64
2016-10-06T08:37:02.751Z,10.67
2016-10-06T08:38:02.736Z,10.63
2016-10-06T08:39:02.696Z,10.71
2016-10-06T08:40:02.674Z,10.75
2016-10-06T08:41:02.946Z,10.69
2016-10-06T08:42:02.618Z,10.75
2016-10-06T08:43:02.597Z,10.69
2016-10-06T08:44:02.570Z,10.78
2016-10-06T08:45:02.541Z,10.74
2016-10-06T08:46:02.515Z,10.81
2016-10-06T08:47:02.487Z,10.82
2016-10-06T08:48:02.467Z,10.94
2016-10-06T08:49:02.436Z,11.04
2016-10-06T08:50:02.421Z,10.9
2016-10-06T08:51:02.387Z,10.81
2016-10-06T08:52:02.357Z,10.78
2016-10-06T08:53:02.342Z,10.72
2016-10-06T08:54:02.307Z,10.51
2016-10-06T08:55:02.281Z,10.48
2016-10-06T08:56:02.255Z,10.42
2016-10-06T08:57:02.231Z,10.34
2016-10-06T08:58:02.208Z,10.4
2016-10-06T08:59:02.183Z,10.4
2016-10-06T09:00:02.156Z,10.44
2016-10-06T09:01:02.128Z,10.38
2016-10-06T09:02:02.116Z,10.41
2016-10-06T09:03:02.079Z,10.49
2016-10-06T09:04:02.060Z,10.42
2016-10-06T09:05:02.032Z,10.48
2016-10-06T09:06:02.005Z,10.53
2016-10-06T09:07:01.972Z,10.56
2016-10-06T09:08:01.953Z,10.53
2016-10-06T09:09:01.923Z,10.6
2016-10-06T09:10:01.889Z,10.61
2016-10-06T09:11:01.872Z,10.64
2016-10-06T09:12:02.053Z,10.74
2016-10-06T09:13:01.833Z,10.79
2016-10-06T09:14:01.792Z,10.84
2016-10-06T09:15:01.769Z,10.9
2016-10-06T09:16:01.742Z,10.86
2016-10-06T09:17:01.722Z,10.82
2016-10-06T09:18:01.713Z,10.82
2016-10-06T09:19:01.665Z,10.92
2016-10-06T09:20:01.633Z,10.89
2016-10-06T09:21:01.611Z,10.89
2016-10-06T09:22:01.587Z,10.94
2016-10-06T09:23:01.604Z,10.99
2016-10-06T09:24:01.543Z,11
2016-10-06T09:25:01.516Z,11.02
2016-10-06T09:26:01.489Z,11.07
2016-10-06T09:27:01.459Z,11.25
2016-10-06T09:28:01.433Z,11.12
2016-10-06T09:29:01.418Z,11.12
2016-10-06T09:30:01.385Z,11.32
2016-10-06T09:31:01.370Z,11.36
2016-10-06T09:32:01.340Z,11.44
2016-10-06T09:33:01.322Z,11.52
2016-10-06T09:34:01.418Z,11.55
2016-10-06T09:35:01.274Z,11.65
2016-10-06T09:36:01.241Z,11.54
2016-10-06T09:37:01.306Z,11.68
2016-10-06T09:38:01.193Z,11.7
2016-10-06T09:39:01.173Z,11.8
2016-10-06T09:40:01.151Z,11.78
2016-10-06T09:41:01.122Z,11.81
2016-10-06T09:42:01.097Z,11.9
2016-10-06T09:43:01.070Z,11.8
2016-10-06T09:44:01.051Z,11.8
2016-10-06T09:45:01.021Z,11.84
2016-10-06T09:46:01.721Z,11.81
2016-10-06T09:47:01.266Z,11.69
2016-10-06T09:48:00.949Z,11.73
2016-10-06T09:49:00.932Z,11.59
2016-10-06T09:50:00.896Z,11.63
2016-10-06T09:51:00.877Z,11.62
2016-10-06T09:52:00.850Z,11.62
2016-10-06T09:53:00.834Z,11.6
2016-10-06T09:54:00.803Z,11.6
2016-10-06T09:55:00.776Z,11.7
2016-10-06T09:56:00.750Z,11.7
2016-10-06T09:57:00.729Z,11.73
2016-10-06T09:58:00.701Z,11.7
2016-10-06T09:59:00.677Z,11.77
2016-10-06T10:00:00.659Z,11.84
2016-10-06T10:01:00.632Z,11.87
2016-10-06T10:02:00.604Z,11.84
2016-10-06T10:03:00.584Z,11.75
2016-10-06T10:04:00.571Z,11.81
2016-10-06T10:05:00.532Z,11.73
2016-10-06T10:06:00.508Z,11.75
2016-10-06T10:07:00.483Z,11.69
2016-10-06T10:08:00.461Z,11.72
2016-10-06T10:09:00.730Z,11.65
2016-10-06T10:10:00.421Z,11.62
2016-10-06T10:11:00.381Z,11.59
2016-10-06T10:12:00.375Z,11.52
2016-10-06T10:13:01.625Z,11.52
2016-10-06T10:14:00.302Z,11.54
2016-10-06T10:15:00.289Z,11.55
2016-10-06T10:16:00.253Z,11.47
2016-10-06T10:17:00.229Z,11.35
2016-10-06T10:18:00.201Z,11.43
2016-10-06T10:19:00.180Z,11.35
2016-10-06T10:20:00.155Z,11.3
2016-10-06T10:21:00.131Z,11.25
2016-10-06T10:22:00.102Z,11.19
2016-10-06T10:23:00.079Z,11.23
2016-10-06T10:24:00.045Z,11.14
2016-10-06T10:25:00.029Z,11.17
2016-10-06T10:26:00.001Z,11.19
2016-10-06T10:26:59.976Z,11.14
2016-10-06T10:27:59.962Z,11.11
2016-10-06T10:28:59.929Z,11.07
2016-10-06T10:29:59.899Z,11.04
2016-10-06T10:30:59.871Z,10.99
2016-10-06T10:31:59.849Z,11
2016-10-06T10:32:59.824Z,10.94
2016-10-06T10:33:59.797Z,10.94
2016-10-06T10:34:59.772Z,10.92
2016-10-06T10:35:59.743Z,10.86
2016-10-06T10:36:59.714Z,10.89
2016-10-06T10:37:59.687Z,10.94
2016-10-06T10:38:59.669Z,10.96
2016-10-06T10:39:59.642Z,10.97
2016-10-06T10:40:59.611Z,10.97
2016-10-06T10:41:59.590Z,10.99
2016-10-06T10:42:59.562Z,11.05
2016-10-06T10:43:59.539Z,10.93
2016-10-06T10:44:59.511Z,11.08
2016-10-06T10:45:59.479Z,11.15
2016-10-06T10:46:59.458Z,11.18
2016-10-06T10:47:59.424Z,11.27
2016-10-06T10:48:59.403Z,11.32
2016-10-06T10:49:59.381Z,11.3
2016-10-06T10:50:59.359Z,11.35
2016-10-06T10:51:59.335Z,11.29
2016-10-06T10:52:59.303Z,11.35
2016-10-06T10:53:59.276Z,11.19
2016-10-06T10:54:59.967Z,11.23
2016-10-06T10:55:59.223Z,11.17
2016-10-06T10:56:59.202Z,11.19
2016-10-06T10:57:59.175Z,11.23
2016-10-06T10:58:59.149Z,11.15
2016-10-06T10:59:59.122Z,11.18
2016-10-06T11:00:59.102Z,11.23
2016-10-06T11:01:59.069Z,11.22
2016-10-06T11:02:59.053Z,11.32
2016-10-06T11:03:59.025Z,11.32
2016-10-06T11:04:58.997Z,11.32
2016-10-06T11:05:59.284Z,11.27
2016-10-06T11:06:59.749Z,11.32
2016-10-06T11:07:59.178Z,11.29
2016-10-06T11:08:59.159Z,11.25
2016-10-06T11:09:58.869Z,11.3
2016-10-06T11:10:58.841Z,11.33
2016-10-06T11:11:58.815Z,11.33
2016-10-06T11:12:58.788Z,11.41
2016-10-06T11:13:58.761Z,11.37
2016-10-06T11:14:59.085Z,11.4
2016-10-06T11:15:58.724Z,11.36
2016-10-06T11:16:58.690Z,11.37
2016-10-06T11:17:58.711Z,11.47
2016-10-06T11:18:58.635Z,11.37
2016-10-06T11:19:58.607Z,11.47
2016-10-06T11:20:58.589Z,11.37
2016-10-06T11:21:58.553Z,11.45
2016-10-06T11:22:58.539Z,11.5
2016-10-06T11:23:58.509Z,11.51
2016-10-06T11:24:58.482Z,11.6
2016-10-06T11:25:58.460Z,11.65
2016-10-06T11:26:58.441Z,11.6
2016-10-06T11:27:58.409Z,11.62
2016-10-06T11:28:58.383Z,11.75
2016-10-06T11:29:58.358Z,11.81
2016-10-06T11:30:58.338Z,11.87
2016-10-06T11:31:58.321Z,11.87
2016-10-06T11:32:58.292Z,11.81
2016-10-06T11:33:58.258Z,11.9
2016-10-06T11:34:58.239Z,11.88
2016-10-06T11:35:58.210Z,12.02
2016-10-06T11:36:58.183Z,11.86
2016-10-06T11:37:58.158Z,11.88
2016-10-06T11:38:58.137Z,11.84
2016-10-06T11:39:58.117Z,11.9
2016-10-06T11:40:58.082Z,11.94
2016-10-06T11:41:58.066Z,11.91
2016-10-06T11:42:58.038Z,11.94
2016-10-06T11:43:58.007Z,12.04
2016-10-06T11:44:57.988Z,11.97
2016-10-06T11:45:57.969Z,11.91
2016-10-06T11:46:57.936Z,11.97
2016-10-06T11:47:57.914Z,12.07
2016-10-06T11:48:57.893Z,12.07
2016-10-06T11:49:57.864Z,11.99
2016-10-06T11:50:57.839Z,12.1
2016-10-06T11:51:57.820Z,12.12
2016-10-06T11:52:57.786Z,12.09
2016-10-06T11:53:57.768Z,12.07
2016-10-06T11:54:57.745Z,12.12
2016-10-06T11:55:57.725Z,12.1
2016-10-06T11:56:57.696Z,12.18
2016-10-06T11:57:57.669Z,12.06
2016-10-06T11:58:57.644Z,12.02
2016-10-06T11:59:57.614Z,12
2016-10-06T12:00:57.597Z,12.03
2016-10-06T12:01:57.575Z,12.09
2016-10-06T12:02:57.550Z,12.03
2016-10-06T12:03:57.523Z,12
2016-10-06T12:04:57.502Z,12.02
2016-10-06T12:05:57.477Z,12.12
2016-10-06T12:06:57.455Z,12.18
2016-10-06T12:07:57.427Z,12.17
2016-10-06T12:08:57.403Z,12.18
2016-10-06T12:09:57.380Z,12.24
2016-10-06T12:10:57.351Z,12.2
2016-10-06T12:11:57.330Z,12.22
2016-10-06T12:12:57.301Z,12.18
2016-10-06T12:13:57.281Z,12.2
2016-10-06T12:14:57.261Z,12.28
2016-10-06T12:15:57.237Z,12.27
2016-10-06T12:16:57.204Z,12.28
2016-10-06T12:17:57.190Z,12.18
2016-10-06T12:18:57.160Z,12.21
2016-10-06T12:19:57.134Z,12.27
2016-10-06T12:20:57.117Z,12.27
2016-10-06T12:21:57.399Z,12.24
2016-10-06T12:22:57.107Z,12.35
2016-10-06T12:23:57.037Z,12.45
2016-10-06T12:24:57.011Z,12.36
2016-10-06T12:25:57.090Z,12.36
2016-10-06T12:26:56.968Z,12.37
2016-10-06T12:27:56.942Z,12.35
2016-10-06T12:28:56.958Z,12.31
2016-10-06T12:29:56.893Z,12.31
2016-10-06T12:30:56.871Z,12.31
2016-10-06T12:31:56.850Z,12.32
2016-10-06T12:32:56.819Z,12.32
2016-10-06T12:33:56.787Z,12.36
2016-10-06T12:34:56.769Z,12.29
2016-10-06T12:35:56.747Z,12.27
2016-10-06T12:36:56.896Z,12.24
2016-10-06T12:37:56.692Z,12.15
2016-10-06T12:38:56.670Z,12.1
2016-10-06T12:39:56.648Z,12.13
2016-10-06T12:40:56.620Z,12.1
2016-10-06T12:41:56.597Z,12.18
2016-10-06T12:42:56.573Z,12.17
2016-10-06T12:43:56.549Z,12.15
2016-10-06T12:44:56.521Z,12.07
2016-10-06T12:45:56.498Z,12.03
2016-10-06T12:46:56.467Z,12.03
2016-10-06T12:47:56.445Z,11.94
2016-10-06T12:48:56.423Z,12
2016-10-06T12:49:56.392Z,11.91
2016-10-06T12:50:56.373Z,11.91
2016-10-06T12:51:56.340Z,11.95
2016-10-06T12:52:56.325Z,11.95
2016-10-06T12:53:56.303Z,11.97
2016-10-06T12:54:56.273Z,12.03
2016-10-06T12:55:56.247Z,12.18
2016-10-06T12:56:56.222Z,12.18
2016-10-06T12:57:56.193Z,12.07
2016-10-06T12:58:56.171Z,12.15
2016-10-06T12:59:56.163Z,12.17
2016-10-06T13:00:56.120Z,12.12
2016-10-06T13:01:56.394Z,12.18
2016-10-06T13:02:56.074Z,12.06
2016-10-06T13:03:56.047Z,12.17
2016-10-06T13:04:56.077Z,12.18
2016-10-06T13:05:56.002Z,12.13
2016-10-06T13:06:55.976Z,12.22
2016-10-06T13:07:55.944Z,12.12
2016-10-06T13:08:55.918Z,12.04
2016-10-06T13:09:55.899Z,12.18
2016-10-06T13:10:55.868Z,12.1